createdAt,value
2018-12-22T00:00:15.802Z,993.98
2018-12-22T00:01:15.786Z,993.99
2018-12-22T00:02:15.781Z,993.97
2018-12-22T00:03:15.775Z,993.93
2018-12-22T00:04:15.758Z,994.04
2018-12-22T00:05:15.746Z,994.03
2018-12-22T00:06:15.739Z,994.01
2018-12-22T00:07:15.718Z,994.04
2018-12-22T00:08:15.713Z,994.06
2018-12-22T00:09:15.749Z,994.03
2018-12-22T00:10:15.688Z,994.08
2018-12-22T00:11:15.675Z,994.15
2018-12-22T00:12:15.659Z,994.15
2018-12-22T00:13:15.656Z,994.09
2018-12-22T00:14:15.645Z,994.14
2018-12-22T00:15:15.673Z,994.05
2018-12-22T00:16:15.636Z,994.07
2018-12-22T00:17:15.634Z,994.02
2018-12-22T00:18:15.602Z,993.95
2018-12-22T00:19:15.592Z,994.07
2018-12-22T00:20:15.596Z,994.00
2018-12-22T00:21:15.572Z,993.94
2018-12-22T00:22:15.566Z,993.99
2018-12-22T00:23:15.544Z,994.02
2018-12-22T00:24:15.532Z,994.05
2018-12-22T00:25:15.537Z,994.05
2018-12-22T00:26:15.531Z,994.09
2018-12-22T00:27:15.512Z,994.05
2018-12-22T00:28:22.160Z,994.06
2018-12-22T00:29:16.491Z,994.09
2018-12-22T00:30:15.470Z,994.14
2018-12-22T00:31:15.522Z,994.10
2018-12-22T00:32:15.454Z,994.14
2018-12-22T00:33:15.821Z,994.15
2018-12-22T00:34:15.441Z,994.19
2018-12-22T00:35:15.435Z,994.18
2018-12-22T00:36:15.414Z,994.12
2018-12-22T00:37:15.407Z,994.28
2018-12-22T00:38:15.402Z,994.24
2018-12-22T00:39:15.388Z,994.23
2018-12-22T00:40:15.377Z,994.30
2018-12-22T00:41:15.364Z,994.25
2018-12-22T00:42:15.349Z,994.23
2018-12-22T00:43:15.369Z,994.26
2018-12-22T00:44:15.359Z,994.18
2018-12-22T00:45:15.314Z,994.28
2018-12-22T00:46:15.306Z,994.27
2018-12-22T00:47:15.306Z,994.26
2018-12-22T00:48:15.281Z,994.30
2018-12-22T00:49:15.276Z,994.22
2018-12-22T00:50:15.399Z,994.20
2018-12-22T00:51:15.271Z,994.27
2018-12-22T00:52:15.250Z,994.33
2018-12-22T00:53:15.242Z,994.32
2018-12-22T00:54:15.235Z,994.31
2018-12-22T00:55:15.236Z,994.35
2018-12-22T00:56:15.213Z,994.33
2018-12-22T00:57:15.186Z,994.34
2018-12-22T00:58:15.187Z,994.44
2018-12-22T00:59:15.184Z,994.45
2018-12-22T01:00:15.162Z,994.44
2018-12-22T01:01:15.154Z,994.53
2018-12-22T01:02:15.146Z,994.48
2018-12-22T01:03:15.135Z,994.53
2018-12-22T01:04:15.117Z,994.54
2018-12-22T01:05:15.118Z,994.60
2018-12-22T01:06:15.122Z,994.63
2018-12-22T01:07:15.084Z,994.69
2018-12-22T01:08:15.079Z,994.72
2018-12-22T01:09:15.065Z,994.75
2018-12-22T01:10:15.066Z,994.78
2018-12-22T01:11:15.043Z,994.75
2018-12-22T01:12:15.044Z,994.81
2018-12-22T01:13:15.037Z,994.72
2018-12-22T01:14:15.009Z,994.73
2018-12-22T01:15:14.996Z,994.87
2018-12-22T01:16:15.051Z,994.83
2018-12-22T01:17:14.992Z,994.86
2018-12-22T01:18:14.963Z,994.74
2018-12-22T01:19:14.953Z,994.90
2018-12-22T01:20:14.963Z,994.85
2018-12-22T01:21:14.937Z,995.11
2018-12-22T01:22:14.941Z,994.96
2018-12-22T01:23:14.920Z,995.03
2018-12-22T01:24:14.917Z,994.96
2018-12-22T01:25:14.911Z,995.06
2018-12-22T01:26:14.878Z,995.04
2018-12-22T01:27:14.885Z,995.06
2018-12-22T01:28:14.881Z,995.12
2018-12-22T01:29:14.885Z,995.15
2018-12-22T01:30:14.852Z,995.09
2018-12-22T01:31:14.837Z,995.02
2018-12-22T01:32:14.825Z,995.06
2018-12-22T01:33:14.823Z,995.11
2018-12-22T01:34:14.812Z,995.11
2018-12-22T01:35:14.804Z,995.04
2018-12-22T01:36:14.796Z,995.02
2018-12-22T01:37:14.767Z,995.23
2018-12-22T01:38:14.751Z,995.27
2018-12-22T01:39:14.770Z,995.10
2018-12-22T01:40:14.746Z,995.24
2018-12-22T01:41:14.733Z,995.18
2018-12-22T01:42:14.725Z,995.16
2018-12-22T01:43:14.703Z,995.22
2018-12-22T01:44:14.689Z,995.17
2018-12-22T01:45:14.691Z,995.07
2018-12-22T01:46:14.678Z,995.18
2018-12-22T01:47:14.666Z,995.20
2018-12-22T01:48:14.663Z,995.15
2018-12-22T01:49:14.635Z,995.19
2018-12-22T01:50:14.642Z,995.19
2018-12-22T01:51:14.621Z,995.21
2018-12-22T01:52:14.620Z,995.25
2018-12-22T01:53:14.607Z,995.07
2018-12-22T01:54:14.610Z,995.14
2018-12-22T01:55:14.578Z,995.30
2018-12-22T01:56:14.576Z,995.27
2018-12-22T01:57:14.554Z,995.35
2018-12-22T01:58:14.616Z,995.25
2018-12-22T01:59:14.549Z,995.29
2018-12-22T02:00:14.540Z,995.20
2018-12-22T02:01:14.509Z,995.34
2018-12-22T02:02:14.496Z,995.31
2018-12-22T02:03:14.505Z,995.32
2018-12-22T02:04:14.508Z,995.23
2018-12-22T02:05:14.480Z,995.29
2018-12-22T02:06:14.463Z,995.27
2018-12-22T02:07:14.450Z,995.27
2018-12-22T02:08:14.441Z,995.38
2018-12-22T02:09:14.431Z,995.32
2018-12-22T02:10:14.439Z,995.38
2018-12-22T02:11:14.429Z,995.37
2018-12-22T02:12:14.400Z,995.39
2018-12-22T02:13:14.397Z,995.41
2018-12-22T02:14:14.376Z,995.38
2018-12-22T02:15:14.378Z,995.45
2018-12-22T02:16:14.358Z,995.40
2018-12-22T02:17:14.367Z,995.45
2018-12-22T02:18:14.346Z,995.41
2018-12-22T02:19:14.322Z,995.51
2018-12-22T02:20:14.336Z,995.53
2018-12-22T02:21:14.304Z,995.51
2018-12-22T02:22:14.303Z,995.60
2018-12-22T02:23:14.288Z,995.60
2018-12-22T02:24:14.274Z,995.59
2018-12-22T02:25:14.296Z,995.67
2018-12-22T02:26:14.247Z,995.68
2018-12-22T02:27:14.234Z,995.66
2018-12-22T02:28:14.242Z,995.74
2018-12-22T02:29:14.230Z,995.65
2018-12-22T02:30:14.211Z,995.73
2018-12-22T02:31:14.221Z,995.79
2018-12-22T02:32:14.193Z,995.69
2018-12-22T02:33:14.187Z,995.78
2018-12-22T02:34:14.181Z,995.80
2018-12-22T02:35:14.157Z,995.72
2018-12-22T02:36:14.160Z,995.69
2018-12-22T02:37:14.136Z,995.73
2018-12-22T02:38:14.116Z,995.68
2018-12-22T02:39:14.117Z,995.81
2018-12-22T02:40:14.093Z,995.80
2018-12-22T02:41:14.104Z,995.82
2018-12-22T02:42:14.078Z,995.89
2018-12-22T02:43:14.079Z,995.84
2018-12-22T02:44:14.072Z,995.93
2018-12-22T02:45:14.050Z,995.89
2018-12-22T02:46:14.034Z,995.88
2018-12-22T02:47:14.033Z,995.82
2018-12-22T02:48:14.052Z,995.93
2018-12-22T02:49:14.011Z,995.87
2018-12-22T02:50:14.012Z,995.80
2018-12-22T02:51:13.982Z,995.92
2018-12-22T02:52:13.963Z,995.92
2018-12-22T02:53:13.962Z,995.93
2018-12-22T02:54:13.969Z,995.97
2018-12-22T02:55:13.942Z,995.77
2018-12-22T02:56:13.947Z,995.92
2018-12-22T02:57:13.923Z,995.94
2018-12-22T02:58:13.943Z,995.93
2018-12-22T02:59:13.889Z,995.85
2018-12-22T03:00:13.890Z,995.95
2018-12-22T03:01:13.868Z,995.90
2018-12-22T03:02:13.862Z,995.90
2018-12-22T03:03:13.854Z,995.89
2018-12-22T03:04:13.855Z,995.91
2018-12-22T03:05:13.847Z,995.85
2018-12-22T03:06:13.829Z,995.87
2018-12-22T03:07:13.817Z,995.92
2018-12-22T03:08:13.798Z,995.89
2018-12-22T03:09:13.825Z,995.88
2018-12-22T03:10:13.791Z,995.98
2018-12-22T03:11:13.773Z,995.88
2018-12-22T03:12:13.765Z,995.91
2018-12-22T03:13:13.765Z,995.99
2018-12-22T03:14:13.730Z,995.95
2018-12-22T03:15:13.845Z,995.97
2018-12-22T03:16:13.722Z,996.02
2018-12-22T03:17:13.714Z,995.91
2018-12-22T03:18:13.697Z,996.00
2018-12-22T03:19:13.689Z,995.98
2018-12-22T03:20:13.682Z,996.02
2018-12-22T03:21:13.670Z,995.96
2018-12-22T03:22:13.658Z,996.10
2018-12-22T03:23:13.636Z,996.01
2018-12-22T03:24:13.637Z,996.17
2018-12-22T03:25:13.620Z,996.10
2018-12-22T03:26:13.614Z,996.16
2018-12-22T03:27:13.608Z,996.23
2018-12-22T03:28:13.595Z,996.23
2018-12-22T03:29:15.793Z,996.23
2018-12-22T03:30:13.582Z,996.24
2018-12-22T03:31:13.548Z,996.27
2018-12-22T03:32:13.599Z,996.13
2018-12-22T03:33:13.540Z,996.32
2018-12-22T03:34:13.520Z,996.32
2018-12-22T03:35:13.524Z,996.18
2018-12-22T03:36:13.515Z,996.19
2018-12-22T03:37:13.501Z,996.17
2018-12-22T03:38:13.496Z,996.10
2018-12-22T03:39:13.480Z,996.20
2018-12-22T03:40:13.462Z,996.39
2018-12-22T03:41:13.468Z,996.47
2018-12-22T03:42:13.444Z,996.40
2018-12-22T03:43:13.433Z,996.47
2018-12-22T03:44:13.416Z,996.47
2018-12-22T03:45:13.396Z,996.46
2018-12-22T03:46:13.405Z,996.49
2018-12-22T03:47:13.422Z,996.49
2018-12-22T03:48:13.369Z,996.51
2018-12-22T03:49:13.357Z,996.59
2018-12-22T03:50:13.370Z,996.55
2018-12-22T03:51:13.347Z,996.52
2018-12-22T03:52:13.342Z,996.52
2018-12-22T03:53:13.331Z,996.55
2018-12-22T03:54:13.314Z,996.60
2018-12-22T03:55:13.296Z,996.53
2018-12-22T03:56:13.305Z,996.58
2018-12-22T03:57:13.286Z,996.63
2018-12-22T03:58:13.270Z,996.61
2018-12-22T03:59:13.253Z,996.58
2018-12-22T04:00:13.265Z,996.72
2018-12-22T04:01:13.232Z,996.69
2018-12-22T04:02:13.228Z,996.70
2018-12-22T04:03:13.211Z,996.71
2018-12-22T04:04:13.219Z,996.72
2018-12-22T04:05:13.182Z,996.68
2018-12-22T04:06:13.176Z,996.72
2018-12-22T04:07:13.176Z,996.65
2018-12-22T04:08:13.169Z,996.66
2018-12-22T04:09:13.155Z,996.63
2018-12-22T04:10:13.127Z,996.72
2018-12-22T04:11:13.133Z,996.63
2018-12-22T04:12:13.126Z,996.62
2018-12-22T04:13:13.110Z,996.61
2018-12-22T04:14:13.087Z,996.69
2018-12-22T04:15:13.085Z,996.65
2018-12-22T04:16:13.080Z,996.64
2018-12-22T04:17:13.061Z,996.60
2018-12-22T04:18:13.055Z,996.72
2018-12-22T04:19:13.055Z,996.67
2018-12-22T04:20:13.030Z,996.66
2018-12-22T04:21:13.028Z,996.66
2018-12-22T04:22:13.011Z,996.65
2018-12-22T04:23:13.004Z,996.67
2018-12-22T04:24:13.084Z,996.69
2018-12-22T04:25:12.971Z,996.69
2018-12-22T04:26:12.975Z,996.76
2018-12-22T04:27:12.972Z,996.72
2018-12-22T04:28:12.951Z,996.68
2018-12-22T04:29:12.925Z,996.73
2018-12-22T04:30:12.926Z,996.73
2018-12-22T04:31:12.944Z,996.79
2018-12-22T04:32:12.906Z,996.78
2018-12-22T04:33:12.897Z,996.76
2018-12-22T04:34:12.877Z,996.77
2018-12-22T04:35:12.909Z,996.72
2018-12-22T04:36:12.848Z,996.82
2018-12-22T04:37:12.887Z,996.76
2018-12-22T04:38:12.849Z,996.80
2018-12-22T04:39:12.825Z,996.83
2018-12-22T04:40:12.824Z,996.79
2018-12-22T04:41:12.802Z,996.80
2018-12-22T04:42:12.815Z,996.89
2018-12-22T04:43:12.782Z,996.80
2018-12-22T04:44:12.781Z,996.91
2018-12-22T04:45:12.766Z,996.91
2018-12-22T04:46:12.758Z,996.86
2018-12-22T04:47:12.753Z,996.87
2018-12-22T04:48:12.725Z,997.02
2018-12-22T04:49:12.751Z,996.96
2018-12-22T04:50:12.698Z,996.96
2018-12-22T04:51:12.689Z,996.89
2018-12-22T04:52:12.703Z,996.90
2018-12-22T04:53:12.669Z,996.97
2018-12-22T04:54:12.703Z,996.94
2018-12-22T04:55:12.673Z,996.88
2018-12-22T04:56:12.655Z,996.96
2018-12-22T04:57:12.630Z,997.06
2018-12-22T04:58:12.627Z,996.99
2018-12-22T04:59:12.607Z,996.98
2018-12-22T05:00:12.601Z,996.97
2018-12-22T05:01:12.595Z,996.99
2018-12-22T05:02:12.569Z,997.03
2018-12-22T05:03:12.567Z,996.90
2018-12-22T05:04:12.566Z,997.04
2018-12-22T05:05:12.641Z,996.99
2018-12-22T05:06:12.585Z,996.98
2018-12-22T05:07:12.531Z,997.11
2018-12-22T05:08:12.506Z,997.00
2018-12-22T05:09:12.511Z,997.01
2018-12-22T05:10:12.503Z,997.08
2018-12-22T05:11:12.491Z,997.02
2018-12-22T05:12:12.491Z,997.12
2018-12-22T05:13:12.465Z,997.11
2018-12-22T05:14:12.452Z,997.11
2018-12-22T05:15:12.444Z,997.16
2018-12-22T05:16:12.445Z,997.18
2018-12-22T05:17:12.432Z,997.06
2018-12-22T05:18:12.414Z,997.20
2018-12-22T05:19:12.412Z,997.16
2018-12-22T05:20:12.378Z,997.16
2018-12-22T05:21:12.380Z,997.19
2018-12-22T05:22:12.370Z,997.17
2018-12-22T05:23:12.367Z,997.16
2018-12-22T05:24:12.347Z,997.15
2018-12-22T05:25:12.340Z,997.16
2018-12-22T05:26:12.362Z,997.11
2018-12-22T05:27:12.309Z,997.28
2018-12-22T05:28:12.308Z,997.19
2018-12-22T05:29:12.289Z,997.23
2018-12-22T05:30:12.287Z,997.24
2018-12-22T05:31:12.274Z,997.18
2018-12-22T05:32:12.279Z,997.24
2018-12-22T05:33:12.257Z,997.26
2018-12-22T05:34:12.233Z,997.23
2018-12-22T05:35:12.230Z,997.28
2018-12-22T05:36:12.218Z,997.20
2018-12-22T05:37:12.216Z,997.25
2018-12-22T05:38:12.230Z,997.21
2018-12-22T05:39:12.180Z,997.29
2018-12-22T05:40:12.164Z,997.26
2018-12-22T05:41:12.166Z,997.28
2018-12-22T05:42:12.151Z,997.24
2018-12-22T05:43:12.143Z,997.29
2018-12-22T05:44:12.156Z,997.23
2018-12-22T05:45:12.167Z,997.24
2018-12-22T05:46:12.106Z,997.22
2018-12-22T05:47:12.094Z,997.18
2018-12-22T05:48:12.093Z,997.25
2018-12-22T05:49:12.102Z,997.23
2018-12-22T05:50:12.070Z,997.20
2018-12-22T05:51:12.058Z,997.27
2018-12-22T05:52:12.037Z,997.25
2018-12-22T05:53:12.044Z,997.29
2018-12-22T05:54:12.057Z,997.29
2018-12-22T05:55:12.024Z,997.30
2018-12-22T05:56:11.998Z,997.29
2018-12-22T05:57:12.066Z,997.34
2018-12-22T05:58:11.973Z,997.39
2018-12-22T05:59:11.962Z,997.41
2018-12-22T06:00:11.963Z,997.36
2018-12-22T06:01:11.950Z,997.42
2018-12-22T06:02:11.945Z,997.35
2018-12-22T06:03:11.942Z,997.32
2018-12-22T06:04:11.924Z,997.34
2018-12-22T06:05:11.913Z,997.33
2018-12-22T06:06:11.893Z,997.34
2018-12-22T06:07:11.887Z,997.33
2018-12-22T06:08:11.874Z,997.31
2018-12-22T06:09:11.876Z,997.33
2018-12-22T06:10:11.865Z,997.28
2018-12-22T06:11:11.850Z,997.32
2018-12-22T06:12:11.840Z,997.38
2018-12-22T06:13:11.824Z,997.37
2018-12-22T06:14:11.812Z,997.39
2018-12-22T06:15:11.813Z,997.34
2018-12-22T06:16:11.794Z,997.34
2018-12-22T06:17:11.781Z,997.42
2018-12-22T06:18:11.773Z,997.39
2018-12-22T06:19:11.764Z,997.43
2018-12-22T06:20:11.746Z,997.42
2018-12-22T06:21:11.754Z,997.41
2018-12-22T06:22:11.732Z,997.43
2018-12-22T06:23:11.741Z,997.40
2018-12-22T06:24:11.718Z,997.49
2018-12-22T06:25:11.691Z,997.49
2018-12-22T06:26:11.674Z,997.51
2018-12-22T06:27:11.679Z,997.41
2018-12-22T06:28:11.662Z,997.42
2018-12-22T06:29:11.666Z,997.41
2018-12-22T06:30:11.649Z,997.40
2018-12-22T06:31:11.639Z,997.45
2018-12-22T06:32:11.659Z,997.48
2018-12-22T06:33:11.600Z,997.43
2018-12-22T06:34:11.608Z,997.45
2018-12-22T06:35:11.584Z,997.41
2018-12-22T06:36:11.586Z,997.46
2018-12-22T06:37:11.576Z,997.51
2018-12-22T06:38:11.587Z,997.57
2018-12-22T06:39:11.538Z,997.57
2018-12-22T06:40:11.530Z,997.52
2018-12-22T06:41:11.518Z,997.54
2018-12-22T06:42:11.515Z,997.61
2018-12-22T06:43:11.508Z,997.61
2018-12-22T06:44:11.490Z,997.62
2018-12-22T06:45:11.496Z,997.57
2018-12-22T06:46:11.482Z,997.65
2018-12-22T06:47:11.467Z,997.59
2018-12-22T06:48:11.469Z,997.67
2018-12-22T06:49:11.448Z,997.57
2018-12-22T06:50:11.435Z,997.63
2018-12-22T06:51:11.418Z,997.65
2018-12-22T06:52:11.413Z,997.62
2018-12-22T06:53:11.417Z,997.66
2018-12-22T06:54:11.473Z,997.68
2018-12-22T06:55:11.405Z,997.71
2018-12-22T06:56:11.359Z,997.68
2018-12-22T06:57:11.343Z,997.71
2018-12-22T06:58:11.349Z,997.76
2018-12-22T06:59:11.333Z,997.82
2018-12-22T07:00:17.669Z,997.85
2018-12-22T07:01:12.327Z,997.83
2018-12-22T07:02:11.305Z,997.79
2018-12-22T07:03:11.295Z,997.85
2018-12-22T07:04:11.283Z,997.83
2018-12-22T07:05:11.297Z,997.81
2018-12-22T07:06:11.247Z,997.84
2018-12-22T07:07:11.238Z,997.85
2018-12-22T07:08:11.226Z,997.79
2018-12-22T07:09:11.225Z,997.88
2018-12-22T07:10:11.246Z,997.85
2018-12-22T07:11:11.230Z,997.90
2018-12-22T07:12:11.196Z,997.95
2018-12-22T07:13:11.177Z,997.91
2018-12-22T07:14:11.162Z,997.96
2018-12-22T07:15:11.168Z,997.91
2018-12-22T07:16:11.179Z,997.99
2018-12-22T07:17:11.139Z,998.01
2018-12-22T07:18:11.134Z,998.02
2018-12-22T07:19:11.119Z,998.02
2018-12-22T07:20:11.117Z,997.99
2018-12-22T07:21:11.093Z,997.99
2018-12-22T07:22:11.147Z,998.05
2018-12-22T07:23:11.065Z,998.01
2018-12-22T07:24:11.064Z,998.01
2018-12-22T07:25:11.054Z,998.03
2018-12-22T07:26:11.061Z,998.07
2018-12-22T07:27:11.038Z,998.15
2018-12-22T07:28:11.034Z,998.16
2018-12-22T07:29:11.005Z,998.16
2018-12-22T07:30:10.991Z,998.13
2018-12-22T07:31:10.996Z,998.12
2018-12-22T07:32:10.980Z,998.19
2018-12-22T07:33:10.979Z,998.15
2018-12-22T07:34:10.957Z,998.20
2018-12-22T07:35:10.947Z,998.25
2018-12-22T07:36:10.942Z,998.21
2018-12-22T07:37:10.929Z,998.22
2018-12-22T07:38:10.918Z,998.23
2018-12-22T07:39:10.939Z,998.27
2018-12-22T07:40:10.892Z,998.27
2018-12-22T07:41:10.883Z,998.27
2018-12-22T07:42:10.862Z,998.25
2018-12-22T07:43:10.863Z,998.25
2018-12-22T07:44:10.842Z,998.20
2018-12-22T07:45:10.853Z,998.23
2018-12-22T07:46:10.836Z,998.29
2018-12-22T07:47:10.814Z,998.32
2018-12-22T07:48:10.799Z,998.29
2018-12-22T07:49:10.811Z,998.29
2018-12-22T07:50:10.804Z,998.37
2018-12-22T07:51:10.782Z,998.27
2018-12-22T07:52:10.767Z,998.22
2018-12-22T07:53:10.746Z,998.29
2018-12-22T07:54:10.788Z,998.32
2018-12-22T07:55:10.724Z,998.34
2018-12-22T07:56:10.733Z,998.30
2018-12-22T07:57:10.707Z,998.31
2018-12-22T07:58:10.710Z,998.21
2018-12-22T07:59:10.684Z,998.29
2018-12-22T08:00:10.716Z,998.31
2018-12-22T08:01:10.663Z,998.34
2018-12-22T08:02:10.696Z,998.33
2018-12-22T08:03:10.647Z,998.31
2018-12-22T08:04:10.628Z,998.30
2018-12-22T08:05:10.619Z,998.21
2018-12-22T08:06:10.656Z,998.23
2018-12-22T08:07:10.607Z,998.24
2018-12-22T08:08:10.596Z,998.24
2018-12-22T08:09:10.581Z,998.20
2018-12-22T08:10:10.580Z,998.27
2018-12-22T08:11:10.576Z,998.25
2018-12-22T08:12:10.569Z,998.24
2018-12-22T08:13:10.547Z,998.34
2018-12-22T08:14:10.527Z,998.28
2018-12-22T08:15:10.523Z,998.33
2018-12-22T08:16:10.507Z,998.36
2018-12-22T08:17:10.505Z,998.37
2018-12-22T08:18:10.492Z,998.38
2018-12-22T08:19:10.490Z,998.40
2018-12-22T08:20:10.468Z,998.37
2018-12-22T08:21:10.458Z,998.41
2018-12-22T08:22:10.438Z,998.43
2018-12-22T08:23:10.477Z,998.41
2018-12-22T08:24:10.421Z,998.48
2018-12-22T08:25:10.409Z,998.44
2018-12-22T08:26:10.402Z,998.45
2018-12-22T08:27:10.383Z,998.47
2018-12-22T08:28:10.388Z,998.46
2018-12-22T08:29:10.422Z,998.53
2018-12-22T08:30:10.374Z,998.52
2018-12-22T08:31:10.352Z,998.48
2018-12-22T08:32:10.331Z,998.58
2018-12-22T08:33:10.334Z,998.60
2018-12-22T08:34:10.322Z,998.60
2018-12-22T08:35:10.312Z,998.67
2018-12-22T08:36:10.286Z,998.69
2018-12-22T08:37:10.305Z,998.73
2018-12-22T08:38:10.276Z,998.77
2018-12-22T08:39:10.271Z,998.78
2018-12-22T08:40:10.259Z,998.78
2018-12-22T08:41:10.248Z,998.67
2018-12-22T08:42:10.229Z,998.83
2018-12-22T08:43:10.231Z,998.83
2018-12-22T08:44:10.217Z,998.83
2018-12-22T08:45:10.211Z,998.89
2018-12-22T08:46:10.195Z,998.92
2018-12-22T08:47:10.174Z,998.94
2018-12-22T08:48:10.169Z,998.97
2018-12-22T08:49:10.182Z,999.02
2018-12-22T08:50:10.148Z,998.98
2018-12-22T08:51:10.146Z,999.01
2018-12-22T08:52:10.120Z,998.99
2018-12-22T08:53:10.121Z,999.08
2018-12-22T08:54:10.104Z,999.14
2018-12-22T08:55:10.114Z,999.11
2018-12-22T08:56:10.086Z,999.10
2018-12-22T08:57:10.074Z,999.12
2018-12-22T08:58:10.067Z,999.14
2018-12-22T08:59:10.048Z,999.15
2018-12-22T09:00:10.031Z,999.18
2018-12-22T09:01:10.063Z,999.17
2018-12-22T09:02:10.015Z,999.21
2018-12-22T09:03:10.012Z,999.34
2018-12-22T09:04:09.987Z,999.26
2018-12-22T09:05:09.987Z,999.26
2018-12-22T09:06:09.976Z,999.28
2018-12-22T09:07:09.991Z,999.29
2018-12-22T09:08:09.950Z,999.32
2018-12-22T09:09:09.941Z,999.30
2018-12-22T09:10:09.940Z,999.37
2018-12-22T09:11:09.969Z,999.39
2018-12-22T09:12:09.902Z,999.39
2018-12-22T09:13:09.909Z,999.38
2018-12-22T09:14:09.895Z,999.32
2018-12-22T09:15:09.879Z,999.35
2018-12-22T09:16:09.864Z,999.34
2018-12-22T09:17:09.875Z,999.34
2018-12-22T09:18:09.846Z,999.36
2018-12-22T09:19:09.842Z,999.36
2018-12-22T09:20:09.830Z,999.31
2018-12-22T09:21:09.809Z,999.35
2018-12-22T09:22:09.933Z,999.39
2018-12-22T09:23:09.794Z,999.39
2018-12-22T09:24:09.790Z,999.43
2018-12-22T09:25:09.774Z,999.44
2018-12-22T09:26:09.773Z,999.42
2018-12-22T09:27:09.751Z,999.40
2018-12-22T09:28:09.769Z,999.41
2018-12-22T09:29:09.735Z,999.44
2018-12-22T09:30:09.728Z,999.42
2018-12-22T09:31:09.702Z,999.46
2018-12-22T09:32:09.697Z,999.40
2018-12-22T09:33:09.683Z,999.42
2018-12-22T09:34:13.550Z,999.41
2018-12-22T09:35:09.665Z,999.43
2018-12-22T09:36:09.644Z,999.43
2018-12-22T09:37:09.652Z,999.43
2018-12-22T09:38:09.634Z,999.46
2018-12-22T09:39:09.618Z,999.41
2018-12-22T09:40:09.617Z,999.47
2018-12-22T09:41:09.592Z,999.42
2018-12-22T09:42:09.595Z,999.45
2018-12-22T09:43:09.611Z,999.44
2018-12-22T09:44:09.558Z,999.40
2018-12-22T09:45:09.563Z,999.43
2018-12-22T09:46:09.546Z,999.45
2018-12-22T09:47:09.533Z,999.41
2018-12-22T09:48:09.534Z,999.47
2018-12-22T09:49:09.557Z,999.49
2018-12-22T09:50:09.505Z,999.48
2018-12-22T09:51:09.499Z,999.51
2018-12-22T09:52:09.483Z,999.45
2018-12-22T09:53:09.995Z,999.49
2018-12-22T09:54:09.461Z,999.54
2018-12-22T09:55:09.470Z,999.57
2018-12-22T09:56:09.436Z,999.54
2018-12-22T09:57:09.421Z,999.55
2018-12-22T09:58:09.419Z,999.57
2018-12-22T09:59:09.419Z,999.59
2018-12-22T10:00:09.410Z,999.62
2018-12-22T10:01:09.773Z,999.60
2018-12-22T10:02:09.371Z,999.59
2018-12-22T10:03:09.371Z,999.60
2018-12-22T10:04:09.361Z,999.61
2018-12-22T10:05:09.385Z,999.61
2018-12-22T10:06:09.340Z,999.64
2018-12-22T10:07:09.327Z,999.60
2018-12-22T10:08:09.302Z,999.68
2018-12-22T10:09:09.291Z,999.64
2018-12-22T10:10:09.285Z,999.67
2018-12-22T10:11:09.288Z,999.68
2018-12-22T10:12:09.282Z,999.77
2018-12-22T10:13:09.248Z,999.70
2018-12-22T10:14:09.252Z,999.77
2018-12-22T10:15:09.233Z,999.73
2018-12-22T10:16:09.233Z,999.75
2018-12-22T10:17:09.212Z,999.79
2018-12-22T10:18:09.194Z,999.79
2018-12-22T10:19:09.205Z,999.80
2018-12-22T10:20:09.177Z,999.83
2018-12-22T10:21:09.210Z,999.80
2018-12-22T10:22:09.167Z,999.87
2018-12-22T10:23:09.154Z,999.82
2018-12-22T10:24:09.146Z,999.82
2018-12-22T10:25:09.125Z,999.85
2018-12-22T10:26:09.120Z,999.84
2018-12-22T10:27:09.112Z,999.84
2018-12-22T10:28:09.088Z,999.86
2018-12-22T10:29:09.087Z,999.91
2018-12-22T10:30:09.074Z,1000.01
2018-12-22T10:31:17.714Z,1000.05
2018-12-22T10:32:10.096Z,1000.08
2018-12-22T10:33:09.039Z,1000.10
2018-12-22T10:34:09.031Z,1000.06
2018-12-22T10:35:09.013Z,1000.08
2018-12-22T10:36:09.012Z,1000.14
2018-12-22T10:37:09.002Z,1000.21
2018-12-22T10:38:09.003Z,1000.27
2018-12-22T10:39:08.973Z,1000.23
2018-12-22T10:40:08.978Z,1000.31
2018-12-22T10:41:08.964Z,1000.33
2018-12-22T10:42:08.953Z,1000.36
2018-12-22T10:43:08.948Z,1000.34
2018-12-22T10:44:08.916Z,1000.41
2018-12-22T10:45:08.925Z,1000.39
2018-12-22T10:46:08.904Z,1000.44
2018-12-22T10:47:09.259Z,1000.46
2018-12-22T10:48:08.891Z,1000.46
2018-12-22T10:49:08.879Z,1000.42
2018-12-22T10:50:08.855Z,1000.51
2018-12-22T10:51:08.849Z,1000.58
2018-12-22T10:52:08.846Z,1000.58
2018-12-22T10:53:08.835Z,1000.64
2018-12-22T10:54:08.824Z,1000.59
2018-12-22T10:55:08.800Z,1000.67
2018-12-22T10:56:08.788Z,1000.69
2018-12-22T10:57:08.778Z,1000.74
2018-12-22T10:58:08.797Z,1000.68
2018-12-22T10:59:08.769Z,1000.73
2018-12-22T11:00:08.760Z,1000.72
2018-12-22T11:01:08.750Z,1000.73
2018-12-22T11:02:08.794Z,1000.77
2018-12-22T11:03:08.722Z,1000.79
2018-12-22T11:04:08.721Z,1000.77
2018-12-22T11:05:08.703Z,1000.81
2018-12-22T11:06:08.699Z,1000.85
2018-12-22T11:07:08.720Z,1000.88
2018-12-22T11:08:08.669Z,1000.85
2018-12-22T11:09:09.769Z,1000.87
2018-12-22T11:10:08.650Z,1000.91
2018-12-22T11:11:08.638Z,1000.92
2018-12-22T11:12:08.637Z,1000.96
2018-12-22T11:13:08.622Z,1000.96
2018-12-22T11:14:08.610Z,1000.99
2018-12-22T11:15:08.617Z,1000.99
2018-12-22T11:16:08.583Z,1001.02
2018-12-22T11:17:08.563Z,1000.99
2018-12-22T11:18:08.558Z,1000.99
2018-12-22T11:19:08.563Z,1001.02
2018-12-22T11:20:08.533Z,1000.97
2018-12-22T11:21:08.539Z,1001.05
2018-12-22T11:22:08.521Z,1001.03
2018-12-22T11:23:08.526Z,1001.06
2018-12-22T11:24:08.495Z,1001.07
2018-12-22T11:25:16.390Z,1001.13
2018-12-22T11:26:08.517Z,1001.18
2018-12-22T11:27:08.470Z,1001.15
2018-12-22T11:28:08.446Z,1001.06
2018-12-22T11:29:08.448Z,1001.15
2018-12-22T11:30:08.433Z,1001.17
2018-12-22T11:31:08.426Z,1001.24
2018-12-22T11:32:08.428Z,1001.26
2018-12-22T11:33:08.398Z,1001.29
2018-12-22T11:34:08.388Z,1001.30
2018-12-22T11:35:08.388Z,1001.27
2018-12-22T11:36:08.362Z,1001.30
2018-12-22T11:37:08.379Z,1001.31
2018-12-22T11:38:08.351Z,1001.28
2018-12-22T11:39:08.339Z,1001.30
2018-12-22T11:40:08.332Z,1001.35
2018-12-22T11:41:08.324Z,1001.40
2018-12-22T11:42:08.327Z,1001.46
2018-12-22T11:43:08.305Z,1001.39
2018-12-22T11:44:08.291Z,1001.43
2018-12-22T11:45:08.282Z,1001.43
2018-12-22T11:46:08.269Z,1001.47
2018-12-22T11:47:08.255Z,1001.47
2018-12-22T11:48:08.261Z,1001.48
2018-12-22T11:49:08.233Z,1001.50
2018-12-22T11:50:08.227Z,1001.54
2018-12-22T11:51:08.215Z,1001.55
2018-12-22T11:52:08.191Z,1001.52
2018-12-22T11:53:08.197Z,1001.56
2018-12-22T11:54:08.169Z,1001.57
2018-12-22T11:55:08.168Z,1001.60
2018-12-22T11:56:08.163Z,1001.60
2018-12-22T11:57:08.148Z,1001.63
2018-12-22T11:58:08.155Z,1001.68
2018-12-22T11:59:08.116Z,1001.71
2018-12-22T12:00:08.110Z,1001.75
2018-12-22T12:01:08.099Z,1001.85
2018-12-22T12:02:09.845Z,1001.81
2018-12-22T12:03:08.089Z,1001.84
2018-12-22T12:04:08.116Z,1001.80
2018-12-22T12:05:08.066Z,1001.84
2018-12-22T12:06:08.050Z,1001.89
2018-12-22T12:07:08.040Z,1001.95
2018-12-22T12:08:08.025Z,1001.96
2018-12-22T12:09:08.027Z,1001.94
2018-12-22T12:10:08.033Z,1002.00
2018-12-22T12:11:07.992Z,1002.02
2018-12-22T12:12:08.050Z,1002.05
2018-12-22T12:13:07.982Z,1002.06
2018-12-22T12:14:07.964Z,1002.12
2018-12-22T12:15:07.954Z,1002.19
2018-12-22T12:16:07.958Z,1002.22
2018-12-22T12:17:07.938Z,1002.24
2018-12-22T12:18:07.929Z,1002.26
2018-12-22T12:19:07.913Z,1002.33
2018-12-22T12:20:07.914Z,1002.33
2018-12-22T12:21:07.890Z,1002.42
2018-12-22T12:22:07.888Z,1002.39
2018-12-22T12:23:07.860Z,1002.44
2018-12-22T12:24:07.864Z,1002.43